Time;durP1;ratioP1;P1;durP2;ratioP2;P2;SDS_P1;SDS_P2;PMS_P1;PMS_P2;Temp;Humidity;BMP_temperature;BMP_pressure;BME280_temperature;BME280_humidity;BME280_pressure;Samples;Min_cycle;Max_cycle;Signal;HPM_P1;HPM_P2
2023/05/16 00:01:02;;;;;;;;;;;;;;;9.29;85.12;101831.75;5054756;28;1478;-74
2023/05/16 00:03:29;;;;;;;;;;;;;;;9.28;84.96;101824.88;5048974;28;1964;-73
2023/05/16 00:05:54;;;;;;;;;;;;;;;9.29;84.88;101826.56;5059607;28;1217;-75
2023/05/16 00:08:20;;;;;;;;;;;;;;;9.28;84.95;101825.72;5059918;28;1487;-75
2023/05/16 00:10:45;;;;;;;;;;;;;;;9.27;84.65;101828.41;5065173;28;1561;-75
2023/05/16 00:13:10;;;;;;;;;;;;;;;9.25;84.81;101830.25;5061730;28;1225;-75
2023/05/16 00:15:37;;;;;;;;;;;;;;;9.25;84.52;101825.91;5064369;28;1478;-74
2023/05/16 00:18:02;;;;;;;;;;;;;;;9.25;84.64;101825.91;5066733;28;1217;-74
2023/05/16 00:20:28;;;;;;;;;;;;;;;9.22;83.94;101827.84;5059446;28;1301;-75
2023/05/16 00:22:53;;;;;;;;;;;;;;;9.23;84.69;101829.50;5064357;28;1898;-75
2023/05/16 00:25:19;;;;;;;;;;;;;;;9.23;84.69;101832.09;5063270;28;1462;-76
2023/05/16 00:27:44;;;;;;;;;;;;;;;9.21;84.73;101833.94;5065933;28;1300;-75
2023/05/16 00:30:10;;;;;;;;;;;;;;;9.21;86.10;101829.59;5063748;28;1169;-75
2023/05/16 00:32:35;;;;;;;;;;;;;;;9.19;85.67;101828.88;5059364;28;1262;-74
2023/05/16 00:35:00;;;;;;;;;;;;;;;9.19;86.74;101835.81;5044189;28;1586;-75
2023/05/16 00:37:26;;;;;;;;;;;;;;;9.14;87.31;101830.06;5062088;28;1248;-74
2023/05/16 00:39:51;;;;;;;;;;;;;;;9.13;87.22;101836.19;5059605;28;1141;-74
2023/05/16 00:42:18;;;;;;;;;;;;;;;9.12;87.03;101837.06;5056687;28;1933;-75
2023/05/16 00:44:43;;;;;;;;;;;;;;;9.09;87.43;101829.50;5052827;28;1602;-75
2023/05/16 00:47:09;;;;;;;;;;;;;;;9.05;87.38;101834.03;5063862;28;1275;-75
2023/05/16 00:49:34;;;;;;;;;;;;;;;9.04;86.45;101827.19;5058829;28;1147;-75
2023/05/16 00:51:59;;;;;;;;;;;;;;;8.97;87.17;101837.06;5041816;28;1321;-75
2023/05/16 00:54:27;;;;;;;;;;;;;;;8.98;86.08;101828.38;5042152;28;1227;-75
2023/05/16 00:56:53;;;;;;;;;;;;;;;8.92;86.70;101833.91;5060331;28;1450;-74
2023/05/16 00:59:18;;;;;;;;;;;;;;;8.85;87.26;101836.97;5067167;28;1096;-75
2023/05/16 01:01:47;;;;;;;;;;;;;;;8.78;87.23;101846.84;5048959;28;1278;-75
2023/05/16 01:04:12;;;;;;;;;;;;;;;8.63;87.08;101837.34;5067316;28;2057;-75
2023/05/16 01:06:37;;;;;;;;;;;;;;;8.56;87.72;101843.81;5044905;28;1166;-74
2023/05/16 01:09:03;;;;;;;;;;;;;;;8.48;88.41;101845.06;5065336;28;1640;-75
2023/05/16 01:11:47;;;;;;;;;;;;;;;8.45;88.07;101840.06;5058247;28;1585;-75
2023/05/16 01:14:20;;;;;;;;;;;;;;;8.43;87.75;101841.06;5061425;28;1517;-75
2023/05/16 01:16:52;;;;;;;;;;;;;;;8.41;87.52;101848.91;5062213;28;1510;-75
2023/05/16 01:19:36;;;;;;;;;;;;;;;8.40;87.73;101846.41;5039532;28;1359;-75
2023/05/16 01:22:05;;;;;;;;;;;;;;;8.33;88.03;101845.06;5063957;28;1863;-75
2023/05/16 01:24:40;;;;;;;;;;;;;;;8.27;87.86;101845.41;5046263;28;1641;-74
2023/05/16 01:27:06;;;;;;;;;;;;;;;8.22;87.75;101848.25;5060323;28;1875;-75
2023/05/16 01:29:31;;;;;;;;;;;;;;;8.20;87.92;101850.06;5057140;28;1491;-75
2023/05/16 01:31:57;;;;;;;;;;;;;;;8.19;87.93;101848.41;5069670;28;1235;-74
2023/05/16 01:34:22;;;;;;;;;;;;;;;8.08;88.35;101845.56;5069251;28;1408;-74
2023/05/16 01:36:56;;;;;;;;;;;;;;;8.02;88.33;101853.66;5069642;28;1280;-75
2023/05/16 01:39:24;;;;;;;;;;;;;;;7.97;87.99;101849.59;5069859;28;1280;-75
2023/05/16 01:41:54;;;;;;;;;;;;;;;7.92;88.40;101851.59;5069814;28;1573;-74
2023/05/16 01:44:26;;;;;;;;;;;;;;;7.88;88.93;101846.66;5060610;28;1894;-75
2023/05/16 01:46:55;;;;;;;;;;;;;;;7.84;88.63;101848.56;5064247;28;1116;-75
2023/05/16 01:49:33;;;;;;;;;;;;;;;7.82;88.94;101853.00;5070266;28;1165;-74
2023/05/16 01:52:00;;;;;;;;;;;;;;;7.85;88.76;101855.41;5042427;28;1090;-74
2023/05/16 01:54:28;;;;;;;;;;;;;;;7.80;89.31;101857.41;5061683;28;1135;-75
2023/05/16 01:56:54;;;;;;;;;;;;;;;7.77;89.10;101854.97;5061065;28;1674;-75
2023/05/16 01:59:21;;;;;;;;;;;;;;;7.76;89.20;101855.91;5043271;28;1312;-74
2023/05/16 02:01:46;;;;;;;;;;;;;;;7.73;89.37;101856.06;5065641;28;1121;-75
2023/05/16 02:04:14;;;;;;;;;;;;;;;7.72;89.28;101851.81;5064871;28;2057;-74
2023/05/16 02:06:39;;;;;;;;;;;;;;;7.66;88.93;101854.72;5065734;28;1632;-75
2023/05/16 02:09:04;;;;;;;;;;;;;;;7.61;89.11;101856.72;5057948;28;1303;-74
2023/05/16 02:11:30;;;;;;;;;;;;;;;7.56;89.14;101858.69;5066684;28;1487;-74
2023/05/16 02:13:55;;;;;;;;;;;;;;;7.51;89.87;101860.69;5065241;28;1554;-75
2023/05/16 02:16:20;;;;;;;;;;;;;;;7.48;89.72;101855.69;5070230;28;1138;-74
2023/05/16 02:18:45;;;;;;;;;;;;;;;7.48;89.76;101861.69;5069561;28;1232;-75
2023/05/16 02:21:10;;;;;;;;;;;;;;;7.50;90.22;101861.59;5043828;28;1318;-74
2023/05/16 02:23:36;;;;;;;;;;;;;;;7.46;89.90;101863.53;5064364;28;1958;-74
2023/05/16 02:26:01;;;;;;;;;;;;;;;7.43;90.19;101869.66;5064877;28;1222;-75
2023/05/16 02:28:26;;;;;;;;;;;;;;;7.40;89.80;101869.84;5065811;28;1267;-77
2023/05/16 02:30:55;;;;;;;;;;;;;;;7.35;89.56;101870.97;5060823;28;1204;-74
2023/05/16 02:33:21;;;;;;;;;;;;;;;7.33;90.53;101873.63;5061616;28;1433;-75
2023/05/16 02:35:46;;;;;;;;;;;;;;;7.33;90.18;101878.78;5050407;28;1353;-74
2023/05/16 02:38:16;;;;;;;;;;;;;;;7.30;90.98;101873.78;5062297;28;1338;-74
2023/05/16 02:40:41;;;;;;;;;;;;;;;7.31;90.66;101878.03;5058667;28;1240;-75
2023/05/16 02:43:06;;;;;;;;;;;;;;;7.29;90.51;101882.44;5068412;28;1964;-75
2023/05/16 02:45:31;;;;;;;;;;;;;;;7.30;90.54;101884.13;5059684;28;1209;-74
2023/05/16 02:47:57;;;;;;;;;;;;;;;7.30;90.62;101888.44;5069370;28;1253;-74
2023/05/16 02:50:22;;;;;;;;;;;;;;;7.31;89.98;101890.94;5042999;28;1446;-74
2023/05/16 02:52:47;;;;;;;;;;;;;;;7.28;90.37;101885.91;5055660;28;1196;-74
2023/05/16 02:55:12;;;;;;;;;;;;;;;7.28;90.02;101885.91;5069259;28;1332;-75
2023/05/16 02:57:37;;;;;;;;;;;;;;;7.29;90.06;101897.09;5055190;28;1255;-74
2023/05/16 03:00:04;;;;;;;;;;;;;;;7.28;89.47;101892.81;5043510;28;1232;-74
2023/05/16 03:02:30;;;;;;;;;;;;;;;7.28;89.59;101885.09;5047876;28;1894;-74
2023/05/16 03:04:55;;;;;;;;;;;;;;;7.21;89.75;101900.03;5065211;28;1022;-74
2023/05/16 03:07:20;;;;;;;;;;;;;;;7.18;90.93;101889.91;5068130;28;1352;-74
2023/05/16 03:09:45;;;;;;;;;;;;;;;7.14;90.75;101893.53;5064089;28;1002;-74
2023/05/16 03:12:10;;;;;;;;;;;;;;;7.09;90.51;101898.09;5045245;28;1332;-75
2023/05/16 03:14:36;;;;;;;;;;;;;;;7.08;91.20;101899.00;5067319;28;1123;-74
2023/05/16 03:17:01;;;;;;;;;;;;;;;7.06;90.94;101893.09;5067740;28;1450;-74
2023/05/16 03:19:26;;;;;;;;;;;;;;;7.06;90.48;101904.25;5049359;28;1219;-74
2023/05/16 03:21:51;;;;;;;;;;;;;;;7.03;90.55;101900.97;5068701;28;1201;-75
2023/05/16 03:24:17;;;;;;;;;;;;;;;7.01;90.99;101902.81;5048120;28;1890;-74
2023/05/16 03:26:42;;;;;;;;;;;;;;;7.01;91.17;101903.63;5061041;28;1177;-74
2023/05/16 03:29:07;;;;;;;;;;;;;;;6.99;91.26;101909.75;5060809;28;1499;-74
2023/05/16 03:31:32;;;;;;;;;;;;;;;6.99;91.19;101909.75;5048054;28;1220;-74
2023/05/16 03:33:58;;;;;;;;;;;;;;;6.93;90.75;101896.25;5044989;28;1593;-74
2023/05/16 03:36:23;;;;;;;;;;;;;;;6.96;92.02;101904.78;5053246;28;1237;-73
2023/05/16 03:38:48;;;;;;;;;;;;;;;6.99;90.97;101902.03;5064253;28;1666;-74
2023/05/16 03:41:14;;;;;;;;;;;;;;;6.98;91.72;101908.09;5067980;28;1665;-74
2023/05/16 03:43:39;;;;;;;;;;;;;;;7.01;91.30;101915.69;5041651;28;1926;-74
2023/05/16 03:46:04;;;;;;;;;;;;;;;7.03;90.94;101912.13;5043843;28;1326;-74
2023/05/16 03:48:30;;;;;;;;;;;;;;;6.98;91.98;101918.41;5065189;28;1077;-74
2023/05/16 03:50:56;;;;;;;;;;;;;;;6.96;92.05;101915.09;5043813;28;1173;-74
2023/05/16 03:53:21;;;;;;;;;;;;;;;6.98;91.89;101923.56;5062959;28;1042;-73
2023/05/16 03:55:46;;;;;;;;;;;;;;;6.98;92.10;101923.56;5042979;28;1323;-74
2023/05/16 03:58:11;;;;;;;;;;;;;;;7.00;90.80;101932.91;5058223;28;1164;-73
2023/05/16 04:00:37;;;;;;;;;;;;;;;6.99;91.36;101931.22;5067545;28;1128;-73
2023/05/16 04:03:03;;;;;;;;;;;;;;;7.00;91.14;101932.09;5065998;28;1890;-73
2023/05/16 04:05:28;;;;;;;;;;;;;;;6.99;91.57;101935.56;5048051;28;1314;-74
2023/05/16 04:07:53;;;;;;;;;;;;;;;6.98;91.38;101934.72;5058562;28;1159;-73
2023/05/16 04:10:18;;;;;;;;;;;;;;;7.03;90.79;101937.91;5059581;28;1122;-74
2023/05/16 04:12:43;;;;;;;;;;;;;;;7.01;90.75;101938.91;5060193;28;1225;-74
2023/05/16 04:15:09;;;;;;;;;;;;;;;6.95;90.70;101944.38;5056465;28;1569;-74
2023/05/16 04:17:35;;;;;;;;;;;;;;;6.96;91.10;101951.19;5065806;28;1280;-73
2023/05/16 04:20:00;;;;;;;;;;;;;;;6.95;91.31;101949.53;5067074;28;1260;-74
2023/05/16 04:22:25;;;;;;;;;;;;;;;6.96;90.86;101943.47;5066686;28;1897;-73
2023/05/16 04:24:51;;;;;;;;;;;;;;;6.95;91.47;101952.09;5061612;28;1005;-73
2023/05/16 04:27:16;;;;;;;;;;;;;;;6.96;91.56;101953.78;5065070;28;1288;-74
2023/05/16 04:29:41;;;;;;;;;;;;;;;6.95;90.80;101949.53;5048020;28;1297;-74
2023/05/16 04:32:07;;;;;;;;;;;;;;;6.96;90.46;101951.19;5064571;28;1201;-73
2023/05/16 04:34:36;;;;;;;;;;;;;;;6.96;91.36;101956.34;5061212;28;1112;-74
2023/05/16 04:37:01;;;;;;;;;;;;;;;7.01;91.48;101959.56;5048729;28;1307;-73
2023/05/16 04:39:26;;;;;;;;;;;;;;;6.98;90.83;101965.66;5043222;28;1332;-73
2023/05/16 04:41:51;;;;;;;;;;;;;;;7.00;90.49;101965.63;5060066;28;1377;-73
2023/05/16 04:44:17;;;;;;;;;;;;;;;6.99;91.27;101966.50;5065898;28;2022;-73
2023/05/16 04:46:42;;;;;;;;;;;;;;;7.00;91.52;101969.03;5062444;28;1424;-73
2023/05/16 04:49:07;;;;;;;;;;;;;;;6.99;91.26;101971.66;5065583;28;1232;-74
2023/05/16 04:51:33;;;;;;;;;;;;;;;7.03;90.45;101968.03;5057062;28;1217;-73
2023/05/16 04:53:58;;;;;;;;;;;;;;;7.01;91.86;101972.44;5067864;28;1354;-75
2023/05/16 04:56:25;;;;;;;;;;;;;;;7.17;91.12;101973.38;5061058;28;1210;-73
2023/05/16 04:58:50;;;;;;;;;;;;;;;7.06;90.86;101978.22;5063547;28;1377;-72
2023/05/16 05:01:15;;;;;;;;;;;;;;;7.11;90.49;101976.22;5066996;28;1211;-73
2023/05/16 05:03:40;;;;;;;;;;;;;;;7.16;91.08;101979.41;5069486;28;1910;-73
2023/05/16 05:06:06;;;;;;;;;;;;;;;7.16;90.67;101984.59;5071032;28;1105;-73
2023/05/16 05:08:31;;;;;;;;;;;;;;;7.18;90.79;101983.63;5075735;28;1256;-73
2023/05/16 05:10:56;;;;;;;;;;;;;;;7.24;90.93;101991.97;5078113;28;1017;-73
2023/05/16 05:13:22;;;;;;;;;;;;;;;7.27;91.03;101987.47;5070032;28;1157;-74
2023/05/16 05:15:49;;;;;;;;;;;;;;;7.31;90.83;101988.16;5061318;28;1358;-74
2023/05/16 05:18:14;;;;;;;;;;;;;;;7.34;90.48;101991.44;5061072;28;1209;-74
2023/05/16 05:20:39;;;;;;;;;;;;;;;7.40;91.02;101993.72;5069095;28;1195;-74
2023/05/16 05:23:04;;;;;;;;;;;;;;;7.40;91.15;101993.72;5064288;28;1901;-74
2023/05/16 05:25:30;;;;;;;;;;;;;;;7.43;90.47;101988.38;5054521;28;994;-73
2023/05/16 05:27:55;;;;;;;;;;;;;;;7.49;90.92;101992.41;5060328;28;1224;-73
2023/05/16 05:30:20;;;;;;;;;;;;;;;7.56;90.93;101992.94;5068394;28;1204;-75
2023/05/16 05:32:45;;;;;;;;;;;;;;;7.63;90.78;101994.31;5058237;28;1324;-74
2023/05/16 05:35:10;;;;;;;;;;;;;;;7.71;90.25;102005.91;5041248;28;1305;-75
2023/05/16 05:37:36;;;;;;;;;;;;;;;7.69;89.84;101994.00;5065739;28;1400;-74
2023/05/16 05:40:02;;;;;;;;;;;;;;;7.70;89.10;102001.66;5065809;28;1271;-73
2023/05/16 05:42:27;;;;;;;;;;;;;;;7.74;89.33;102002.34;5064132;28;1906;-74
2023/05/16 05:44:52;;;;;;;;;;;;;;;7.68;88.28;102019.00;5070260;28;1271;-73
2023/05/16 05:47:17;;;;;;;;;;;;;;;7.67;88.75;102017.31;5049172;28;1613;-73
2023/05/16 05:49:42;;;;;;;;;;;;;;;7.68;88.46;102012.97;5049231;28;1429;-74
2023/05/16 05:52:08;;;;;;;;;;;;;;;7.70;88.65;102013.75;5043753;28;1754;-74
2023/05/16 05:54:33;;;;;;;;;;;;;;;7.72;88.96;102020.50;5069970;28;1523;-74
2023/05/16 05:56:59;;;;;;;;;;;;;;;7.74;88.66;102020.41;5071551;28;1280;-74
2023/05/16 05:59:24;;;;;;;;;;;;;;;7.81;88.87;102014.03;5061482;28;1161;-74
2023/05/16 06:01:51;;;;;;;;;;;;;;;7.88;88.63;102015.38;5062342;28;1244;-74
2023/05/16 06:04:17;;;;;;;;;;;;;;;7.95;88.90;102011.56;5067613;28;1898;-74
2023/05/16 06:06:42;;;;;;;;;;;;;;;8.08;88.82;102014.34;5063184;28;1203;-74
2023/05/16 06:09:07;;;;;;;;;;;;;;;8.15;88.85;102022.63;5059265;28;1295;-74
2023/05/16 06:11:32;;;;;;;;;;;;;;;8.23;87.81;102025.66;5064676;28;1176;-74
2023/05/16 06:13:57;;;;;;;;;;;;;;;8.27;87.38;102027.16;5049702;28;1531;-74
2023/05/16 06:16:24;;;;;;;;;;;;;;;8.33;87.55;102028.59;5057759;28;1182;-75
2023/05/16 06:18:49;;;;;;;;;;;;;;;8.39;87.16;102039.47;5068617;28;1236;-76
2023/05/16 06:21:14;;;;;;;;;;;;;;;8.46;85.88;102027.88;5062673;28;1119;-74
2023/05/16 06:23:40;;;;;;;;;;;;;;;8.52;85.61;102039.66;5044623;28;1898;-74
2023/05/16 06:26:05;;;;;;;;;;;;;;;8.59;84.81;102042.72;5060394;28;1207;-74
2023/05/16 06:28:30;;;;;;;;;;;;;;;8.67;85.72;102040.59;5047401;28;1303;-75
2023/05/16 06:30:56;;;;;;;;;;;;;;;8.83;84.18;102041.44;5068121;28;1258;-74
2023/05/16 06:33:21;;;;;;;;;;;;;;;8.84;83.80;102037.91;5062634;28;1219;-75
2023/05/16 06:35:47;;;;;;;;;;;;;;;8.84;83.39;102043.09;5063435;28;1175;-75
2023/05/16 06:38:13;;;;;;;;;;;;;;;8.92;83.39;102046.06;5068039;28;1427;-74
2023/05/16 06:40:38;;;;;;;;;;;;;;;9.01;81.06;102043.00;5069106;28;1064;-74
2023/05/16 06:43:03;;;;;;;;;;;;;;;8.96;80.52;102042.41;5064767;28;1894;-74
2023/05/16 06:45:28;;;;;;;;;;;;;;;9.02;80.21;102049.81;5062424;28;1096;-75
2023/05/16 06:47:54;;;;;;;;;;;;;;;9.08;80.09;102045.25;5045962;28;1345;-75
2023/05/16 06:50:19;;;;;;;;;;;;;;;9.11;78.80;102051.06;5068859;28;1538;-75
2023/05/16 06:52:45;;;;;;;;;;;;;;;9.15;79.50;102051.72;5047640;28;1339;-74
2023/05/16 06:55:11;;;;;;;;;;;;;;;9.20;79.86;102052.31;5069710;28;1237;-75
2023/05/16 06:57:36;;;;;;;;;;;;;;;9.34;80.43;102054.09;5060997;28;1202;-75
2023/05/16 07:00:01;;;;;;;;;;;;;;;9.33;78.66;102050.69;5069259;28;1197;-76
2023/05/16 07:02:27;;;;;;;;;;;;;;;9.39;77.06;102047.75;5061555;28;1894;-75
2023/05/16 07:04:52;;;;;;;;;;;;;;;9.45;77.40;102047.41;5067823;28;964;-75
2023/05/16 07:07:18;;;;;;;;;;;;;;;9.48;78.12;102055.00;5041119;28;1518;-75
2023/05/16 07:09:43;;;;;;;;;;;;;;;9.56;78.14;102047.63;5042666;28;1222;-75
2023/05/16 07:12:08;;;;;;;;;;;;;;;9.70;77.32;102056.38;5041347;28;1284;-75
2023/05/16 07:14:33;;;;;;;;;;;;;;;9.68;75.35;102051.25;5065735;28;1292;-75
2023/05/16 07:16:59;;;;;;;;;;;;;;;9.72;75.11;102062.28;5046041;28;1213;-74
2023/05/16 07:19:24;;;;;;;;;;;;;;;9.79;75.22;102058.41;5062973;28;1220;-75
2023/05/16 07:21:49;;;;;;;;;;;;;;;9.79;73.89;102059.22;5056830;28;1264;-74
2023/05/16 07:24:14;;;;;;;;;;;;;;;9.76;73.14;102074.13;5063659;28;1898;-76
2023/05/16 07:26:40;;;;;;;;;;;;;;;9.74;73.74;102070.78;5064080;28;1375;-75
2023/05/16 07:29:05;;;;;;;;;;;;;;;9.83;74.09;102070.25;5067195;28;1537;-75
2023/05/16 07:31:30;;;;;;;;;;;;;;;9.82;74.86;102073.78;5058708;28;1228;-75
2023/05/16 07:33:55;;;;;;;;;;;;;;;9.94;74.42;102078.25;5067450;28;1316;-76
2023/05/16 07:36:21;;;;;;;;;;;;;;;9.97;74.07;102067.69;5065550;28;1536;-74
2023/05/16 07:38:46;;;;;;;;;;;;;;;10.05;74.46;102075.84;5049042;28;1347;-75
2023/05/16 07:41:11;;;;;;;;;;;;;;;10.04;73.23;102069.00;5057210;28;1763;-75
2023/05/16 07:43:37;;;;;;;;;;;;;;;9.97;72.91;102070.28;5062250;28;1957;-74
2023/05/16 07:46:02;;;;;;;;;;;;;;;9.99;73.54;102075.38;5065926;28;1122;-75
2023/05/16 07:48:28;;;;;;;;;;;;;;;10.08;74.82;102069.63;5067815;28;1246;-74
2023/05/16 07:50:53;;;;;;;;;;;;;;;10.16;72.43;102082.16;5066778;28;1001;-75
2023/05/16 07:53:19;;;;;;;;;;;;;;;10.13;73.15;102071.97;5066008;28;1322;-75
2023/05/16 07:55:45;;;;;;;;;;;;;;;10.18;71.90;102080.31;5063693;28;1096;-76
2023/05/16 07:58:10;;;;;;;;;;;;;;;10.27;72.23;102069.41;5067546;28;1060;-75
2023/05/16 08:00:35;;;;;;;;;;;;;;;10.35;72.78;102062.00;5045046;28;1310;-76
2023/05/16 08:03:00;;;;;;;;;;;;;;;10.48;71.26;102075.03;5049457;28;1897;-76
2023/05/16 08:05:25;;;;;;;;;;;;;;;10.63;69.69;102061.97;5064217;28;1054;-76
2023/05/16 08:07:51;;;;;;;;;;;;;;;10.69;68.67;102065.13;5046193;28;1187;-76
2023/05/16 08:10:16;;;;;;;;;;;;;;;10.77;70.03;102068.06;5058043;28;1125;-75
2023/05/16 08:12:41;;;;;;;;;;;;;;;10.79;67.42;102076.59;5065789;28;1213;-76
2023/05/16 08:15:07;;;;;;;;;;;;;;;10.80;67.45;102067.88;5060639;28;1577;-76
2023/05/16 08:17:33;;;;;;;;;;;;;;;10.92;69.29;102064.50;5068361;28;1308;-77
2023/05/16 08:20:00;;;;;;;;;;;;;;;11.05;67.94;102067.97;5057071;28;1331;-76
2023/05/16 08:22:25;;;;;;;;;;;;;;;11.04;66.50;102074.09;5068004;28;1961;-75
2023/05/16 08:24:50;;;;;;;;;;;;;;;11.12;67.22;102074.44;5067751;28;1060;-75
2023/05/16 08:27:16;;;;;;;;;;;;;;;11.15;68.47;102074.25;5063109;28;1541;-75
2023/05/16 08:29:41;;;;;;;;;;;;;;;11.14;67.22;102071.78;5062705;28;1708;-75
2023/05/16 08:32:07;;;;;;;;;;;;;;;11.09;67.49;102066.88;5049386;28;1346;-75
2023/05/16 08:34:32;;;;;;;;;;;;;;;11.19;66.80;102068.88;5065068;28;1197;-76
2023/05/16 08:36:58;;;;;;;;;;;;;;;11.41;67.87;102069.13;5059565;28;1155;-76
2023/05/16 08:39:23;;;;;;;;;;;;;;;11.40;67.07;102064.88;5053299;28;1326;-76
2023/05/16 08:41:48;;;;;;;;;;;;;;;11.45;66.41;102065.41;5055443;28;1208;-75
2023/05/16 08:44:20;;;;;;;;;;;;;;;11.37;63.75;102068.50;5061175;28;1918;-76
2023/05/16 08:46:49;;;;;;;;;;;;;;;11.43;64.90;102062.09;5057599;28;1296;-77
2023/05/16 08:49:16;;;;;;;;;;;;;;;11.48;64.21;102070.41;5061158;28;1305;-76
2023/05/16 08:51:41;;;;;;;;;;;;;;;11.46;64.62;102061.88;5055115;28;1155;-75
2023/05/16 08:54:10;;;;;;;;;;;;;;;11.43;65.03;102067.28;5065030;28;1503;-75
2023/05/16 08:56:36;;;;;;;;;;;;;;;11.42;65.55;102060.44;5062744;28;1431;-75
2023/05/16 08:59:02;;;;;;;;;;;;;;;11.42;64.68;102083.81;5042970;28;1293;-75
2023/05/16 09:01:27;;;;;;;;;;;;;;;11.32;65.12;102082.72;5059887;28;1236;-74
2023/05/16 09:03:54;;;;;;;;;;;;;;;11.19;66.91;102089.66;5057623;28;1894;-75
2023/05/16 09:06:19;;;;;;;;;;;;;;;11.04;67.39;102087.09;5045884;28;1171;-74
2023/05/16 09:08:44;;;;;;;;;;;;;;;10.93;68.90;102079.16;5066442;28;1506;-74
2023/05/16 09:11:09;;;;;;;;;;;;;;;10.80;68.42;102088.63;5065800;28;1221;-75
2023/05/16 09:13:36;;;;;;;;;;;;;;;10.73;69.81;102090.78;5042499;28;1445;-75
2023/05/16 09:16:07;;;;;;;;;;;;;;;10.75;70.08;102090.69;5043781;28;1346;-74
2023/05/16 09:18:32;;;;;;;;;;;;;;;10.71;69.45;102090.03;5041497;28;1671;-76
2023/05/16 09:20:58;;;;;;;;;;;;;;;10.75;70.08;102090.69;5063479;28;1290;-76
2023/05/16 09:23:24;;;;;;;;;;;;;;;10.89;71.73;102088.03;5066786;28;1981;-76
2023/05/16 09:25:51;;;;;;;;;;;;;;;11.06;71.17;102087.81;5065403;28;1201;-77
2023/05/16 09:28:17;;;;;;;;;;;;;;;11.24;70.92;102087.56;5056373;28;1534;-76
2023/05/16 09:30:44;;;;;;;;;;;;;;;11.37;68.90;102089.28;5056968;28;1264;-76
2023/05/16 09:33:10;;;;;;;;;;;;;;;11.51;68.73;102075.41;5060055;28;1558;-76
2023/05/16 09:35:35;;;;;;;;;;;;;;;11.64;68.00;102076.28;5059483;28;1276;-76
2023/05/16 09:38:01;;;;;;;;;;;;;;;11.76;66.88;102071.19;5066295;28;1244;-76
2023/05/16 09:40:26;;;;;;;;;;;;;;;11.85;67.22;102073.19;5063461;28;1347;-76
2023/05/16 09:43:02;;;;;;;;;;;;;;;11.99;67.58;102070.53;5066595;28;2070;-76
2023/05/16 09:45:27;;;;;;;;;;;;;;;12.15;67.37;102075.50;5065986;28;1244;-76
2023/05/16 09:47:53;;;;;;;;;;;;;;;12.31;67.50;102070.91;5064337;28;1209;-76
2023/05/16 09:50:18;;;;;;;;;;;;;;;12.44;68.14;102074.34;5048674;28;1234;-76
2023/05/16 09:52:43;;;;;;;;;;;;;;;12.49;66.35;102071.38;5066625;28;1410;-76
2023/05/16 09:55:09;;;;;;;;;;;;;;;12.64;65.78;102067.72;5068007;28;1399;-76
2023/05/16 09:57:38;;;;;;;;;;;;;;;12.71;59.55;102068.94;5070181;28;1556;-75
2023/05/16 10:00:07;;;;;;;;;;;;;;;12.62;62.00;102067.00;5066386;28;1123;-76
2023/05/16 10:02:32;;;;;;;;;;;;;;;12.57;61.71;102076.91;5051965;28;1898;-75
2023/05/16 10:04:58;;;;;;;;;;;;;;;12.52;61.07;102079.00;5065843;28;1284;-76
2023/05/16 10:07:23;;;;;;;;;;;;;;;12.51;61.49;102072.13;5068696;28;1222;-75
2023/05/16 10:09:49;;;;;;;;;;;;;;;12.42;58.73;102083.16;5067906;28;1236;-76
2023/05/16 10:12:15;;;;;;;;;;;;;;;12.40;59.27;102075.47;5063143;28;1249;-75
2023/05/16 10:14:41;;;;;;;;;;;;;;;12.51;60.13;102071.31;5063658;28;1213;-77
2023/05/16 10:17:07;;;;;;;;;;;;;;;12.72;59.09;102073.22;5051611;28;1186;-76
2023/05/16 10:19:35;;;;;;;;;;;;;;;12.82;56.07;102064.75;5037025;28;1208;-76
2023/05/16 10:22:03;;;;;;;;;;;;;;;12.99;54.40;102082.59;5067939;28;1265;-77
2023/05/16 10:24:30;;;;;;;;;;;;;;;12.97;51.40;102084.50;5060969;28;1957;-75
2023/05/16 10:26:55;;;;;;;;;;;;;;;12.81;52.75;102087.38;5067888;28;1214;-75
2023/05/16 10:29:21;;;;;;;;;;;;;;;12.76;52.08;102079.88;5066725;28;1514;-75
2023/05/16 10:31:47;;;;;;;;;;;;;;;12.88;53.29;102070.34;5067885;28;1200;-76
2023/05/16 10:34:12;;;;;;;;;;;;;;;12.99;54.24;102073.03;5067048;28;1256;-76
2023/05/16 10:36:38;;;;;;;;;;;;;;;13.11;55.57;102073.91;5037305;28;1353;-76
2023/05/16 10:39:04;;;;;;;;;;;;;;;13.28;55.61;102065.72;5063965;28;1411;-76
2023/05/16 10:41:29;;;;;;;;;;;;;;;13.43;55.33;102065.56;5063809;28;1283;-76
2023/05/16 10:43:56;;;;;;;;;;;;;;;13.50;54.78;102072.81;5067311;28;1955;-75
2023/05/16 10:46:22;;;;;;;;;;;;;;;13.40;52.24;102071.00;5066324;28;1072;-76
2023/05/16 10:48:47;;;;;;;;;;;;;;;13.31;52.81;102071.69;5058289;28;1503;-75
2023/05/16 10:51:39;;;;;;;;;;;;;;;13.33;53.95;102075.00;5067468;28;1230;-76
2023/05/16 10:54:05;;;;;;;;;;;;;;;13.28;55.60;102083.97;5063165;28;1030;-76
2023/05/16 10:56:31;;;;;;;;;;;;;;;13.28;54.55;102072.72;5060063;28;1296;-76
2023/05/16 10:58:56;;;;;;;;;;;;;;;13.29;54.20;102084.78;5064546;28;1224;-76
2023/05/16 11:01:23;;;;;;;;;;;;;;;13.17;50.24;102076.06;5061663;28;1328;-76
2023/05/16 11:03:57;;;;;;;;;;;;;;;13.15;52.41;102070.16;5065616;28;1893;-76
2023/05/16 11:06:23;;;;;;;;;;;;;;;13.13;53.83;102077.25;5058482;28;1148;-77
2023/05/16 11:11:38;;;;;;;;;;;;;;;13.16;52.84;102078.78;5066829;28;1573;-75
2023/05/16 11:14:03;;;;;;;;;;;;;;;13.14;54.89;102081.50;5050588;28;1301;-75
2023/05/16 11:16:29;;;;;;;;;;;;;;;13.09;53.64;102088.84;5049318;28;1315;-75
2023/05/16 11:19:02;;;;;;;;;;;;;;;13.04;54.52;102085.72;5059601;28;1411;-75
2023/05/16 11:21:48;;;;;;;;;;;;;;;12.97;55.13;102080.13;5065080;28;1409;-76
2023/05/16 11:24:29;;;;;;;;;;;;;;;12.90;55.88;102083.25;5065787;28;1898;-76
2023/05/16 11:26:54;;;;;;;;;;;;;;;12.97;54.62;102076.69;5068442;28;1515;-76
2023/05/16 11:29:21;;;;;;;;;;;;;;;13.00;54.10;102079.06;5064200;28;1225;-75
2023/05/16 11:31:46;;;;;;;;;;;;;;;13.07;52.82;102079.44;5068066;28;1225;-75
2023/05/16 11:34:12;;;;;;;;;;;;;;;13.09;50.97;102078.41;5067027;28;1340;-76
2023/05/16 11:36:39;;;;;;;;;;;;;;;13.15;53.55;102088.38;5038768;28;1336;-76
2023/05/16 11:39:08;;;;;;;;;;;;;;;13.24;52.29;102076.47;5044065;28;1261;-76
2023/05/16 11:41:34;;;;;;;;;;;;;;;13.34;53.27;102081.84;5055923;28;1605;-75
2023/05/16 11:43:59;;;;;;;;;;;;;;;13.35;54.86;102078.31;5064483;28;1894;-76
2023/05/16 11:46:26;;;;;;;;;;;;;;;13.63;54.24;102084.94;5067355;28;1284;-76
2023/05/16 11:48:51;;;;;;;;;;;;;;;13.47;56.50;102082.63;5068057;28;1201;-76
2023/05/16 11:51:17;;;;;;;;;;;;;;;13.34;55.71;102084.47;5066684;28;1144;-75
2023/05/16 11:53:43;;;;;;;;;;;;;;;13.22;55.40;102079.22;5061320;28;1204;-76
2023/05/16 11:56:10;;;;;;;;;;;;;;;13.23;56.42;102080.88;5049322;28;1503;-76
2023/05/16 11:58:37;;;;;;;;;;;;;;;13.25;55.25;102084.22;5052327;28;1701;-76
2023/05/16 12:01:03;;;;;;;;;;;;;;;13.20;55.63;102081.06;5063662;28;1229;-75
2023/05/16 12:03:32;;;;;;;;;;;;;;;13.17;55.71;102091.69;5063114;28;1910;-75
2023/05/16 12:05:57;;;;;;;;;;;;;;;13.14;54.74;102091.94;5065937;28;1257;-76
2023/05/16 12:08:24;;;;;;;;;;;;;;;13.01;54.66;102099.78;5064790;28;1260;-75
2023/05/16 12:10:50;;;;;;;;;;;;;;;12.90;55.07;102101.47;5054279;28;1181;-75
2023/05/16 12:13:16;;;;;;;;;;;;;;;12.84;54.69;102104.53;5042733;28;1249;-75
2023/05/16 12:15:42;;;;;;;;;;;;;;;12.85;54.61;102103.59;5037435;28;1625;-75
2023/05/16 12:18:08;;;;;;;;;;;;;;;12.80;54.35;102103.09;5060911;28;1166;-75
2023/05/16 12:20:33;;;;;;;;;;;;;;;12.71;54.20;102110.59;5057873;28;1126;-75
2023/05/16 12:22:58;;;;;;;;;;;;;;;12.71;55.27;102104.56;5063328;28;1988;-75
2023/05/16 12:25:28;;;;;;;;;;;;;;;12.73;55.18;102102.66;5049757;28;1523;-75
2023/05/16 12:27:54;;;;;;;;;;;;;;;12.77;55.56;102104.97;5062130;28;1221;-75
2023/05/16 12:30:23;;;;;;;;;;;;;;;12.82;55.11;102109.03;5065067;28;1347;-75
2023/05/16 12:33:21;;;;;;;;;;;;;;;12.79;53.67;102112.69;5067386;28;1299;-76
2023/05/16 12:35:46;;;;;;;;;;;;;;;12.76;54.30;102113.72;4995753;28;1228;-75
2023/05/16 12:38:13;;;;;;;;;;;;;;;12.75;53.45;102109.44;5065545;28;1276;-75
2023/05/16 12:40:39;;;;;;;;;;;;;;;12.72;54.76;102117.47;5065919;28;1210;-75
2023/05/16 12:43:11;;;;;;;;;;;;;;;12.72;54.92;102112.25;5065552;28;1969;-75
2023/05/16 12:45:36;;;;;;;;;;;;;;;12.72;54.90;102122.66;5044047;28;1226;-75
2023/05/16 12:48:07;;;;;;;;;;;;;;;12.74;55.75;102115.59;5065124;28;1239;-75
2023/05/16 12:50:33;;;;;;;;;;;;;;;12.77;56.06;102115.38;5061966;28;947;-74